Thursday, November 23, 2017, 1:17 PM EST
Back to Local

KACY, Atlantic City International

Location: Absecon, NJ, United States Lat: 39.467
Local Time: 1:17 PM EST (18:17 GMT) Lon: -74.583
Time Zone: US/Eastern Elev: 75 ft

Show me the last for .
Show Decoded

2017-11-23 12:54 METAR KACY 231754Z 28005KT 10SM CLR 05/M06 A3007 RMK AO2 SLP184 T00501056 10050
                 21022 58025 =
2017-11-23 11:54 METAR KACY 231654Z 34005KT 10SM CLR 03/M06 A3010 RMK AO2 SLP194 T00331061 =
2017-11-23 10:54 METAR KACY 231554Z 31007KT 10SM CLR 02/M06 A3013 RMK AO2 SLP203 T00221061 =
2017-11-23 09:54 METAR KACY 231454Z 33010KT 10SM CLR 02/M06 A3015 RMK AO2 SLP209 T00171061 50002
                 =
2017-11-23 08:54 METAR KACY 231354Z 32009KT 10SM CLR 01/M06 A3016 RMK AO2 SLP212 T00111056 =
2017-11-23 07:54 METAR KACY 231254Z 31006KT 10SM CLR M01/M05 A3016 RMK AO2 SLP213 T10061050 =
2017-11-23 06:54 METAR KACY 231154Z 30006KT 10SM CLR M02/M06 A3014 RMK AO2 SLP207 70018 T10221061
                 10011 21039 53004 =
2017-11-23 05:54 METAR KACY 231054Z 30005KT 10SM CLR M02/M05 A3014 RMK AO2 SLP206 T10221050 =
2017-11-23 04:54 METAR KACY 230954Z 29003KT 10SM CLR M03/M06 A3013 RMK AO2 SLP203 T10281056 =
2017-11-23 03:54 METAR KACY 230854Z 28003KT 10SM CLR M01/M05 A3013 RMK AO2 SLP203 T10061050 51007
                 =
2017-11-23 02:54 METAR KACY 230754Z 30005KT 10SM CLR M01/M05 A3012 RMK AO2 SLP201 T10111050 =
2017-11-23 01:54 METAR KACY 230654Z 28003KT 10SM CLR 01/M04 A3012 RMK AO2 SLP197 T00111044 =
2017-11-23 00:54 METAR KACY 230554Z 00000KT 10SM CLR 01/M04 A3011 RMK AO2 SLP196 T00061039 10061
                 20006 50007 =
2017-11-22 23:54 METAR KACY 230454Z 33006KT 10SM CLR 02/M04 A3011 RMK AO2 SLP197 T00221039
                 401560022 =
2017-11-22 22:54 METAR KACY 230354Z 33011KT 10SM CLR 03/M03 A3009 RMK AO2 SLP190 T00331033 =
2017-11-22 21:54 METAR KACY 230254Z 33012KT 10SM CLR 04/M03 A3009 RMK AO2 SLP188 T00391028 53014
                 =
2017-11-22 20:54 METAR KACY 230154Z 32014KT 10SM CLR 05/M02 A3006 RMK AO2 SLP177 T00501022 =
2017-11-22 19:54 METAR KACY 230054Z 33011KT 10SM CLR 05/M01 A3005 RMK AO2 SLP176 T00501011 =
2017-11-22 18:54 METAR KACY 222354Z 33013KT 10SM FEW045 06/M01 A3005 RMK AO2 SLP174 T00611011
                 10150 20061 51034 =
2017-11-22 17:54 METAR KACY 222254Z 33016G23KT 10SM FEW046 07/M01 A3002 RMK AO2 SLP165 T00721011
                 =
2017-11-22 16:54 METAR KACY 222154Z 33017G28KT 10SM CLR 08/M01 A2999 RMK AO2 PK WND 33030/2100
                 SLP154 T00831006 =
2017-11-22 15:54 METAR KACY 222054Z 32019KT 10SM SCT055 10/02 A2995 RMK AO2 PK WND 33033/2043
                 SLP141 T01000022 53021 =
2017-11-22 14:54 METAR KACY 221954Z 32015G26KT 10SM BKN060 13/03 A2991 RMK AO2 PK WND 32027/1937
                 SLP129 T01280033 =
2017-11-22 13:54 METAR KACY 221854Z 33016G21KT 10SM SCT039 BKN049 15/07 A2989 RMK AO2 SLP121
                 T01500067 =

Support USWX by starting your Amazon purchase here.